sensor_id;sensor_type;location;lat;lon;timestamp;pressure;altitude;pressure_sealevel;temperature;humidity
64340;BME280;63709;53.258;-8.814;2023-05-07T00:02:12;101341.78;;;17.61;100.00
64340;BME280;63709;53.258;-8.814;2023-05-07T00:04:41;101326.78;;;17.49;100.00
64340;BME280;63709;53.258;-8.814;2023-05-07T00:07:08;101309.34;;;17.43;100.00
64340;BME280;63709;53.258;-8.814;2023-05-07T00:09:35;101317.72;;;17.40;100.00
64340;BME280;63709;53.258;-8.814;2023-05-07T00:12:05;101330.31;;;17.49;100.00
64340;BME280;63709;53.258;-8.814;2023-05-07T00:14:30;101313.63;;;17.36;100.00
64340;BME280;63709;53.258;-8.814;2023-05-07T00:16:56;101351.63;;;17.52;100.00
64340;BME280;63709;53.258;-8.814;2023-05-07T00:20:03;101353.03;;;17.56;100.00
64340;BME280;63709;53.258;-8.814;2023-05-07T00:22:37;101341.72;;;17.43;100.00
64340;BME280;63709;53.258;-8.814;2023-05-07T00:25:03;101311.09;;;17.25;100.00
64340;BME280;63709;53.258;-8.814;2023-05-07T00:27:31;101315.63;;;17.24;100.00
64340;BME280;63709;53.258;-8.814;2023-05-07T00:29:56;101349.94;;;17.41;100.00
64340;BME280;63709;53.258;-8.814;2023-05-07T00:32:29;101341.28;;;17.38;100.00
64340;BME280;63709;53.258;-8.814;2023-05-07T00:34:59;101362.69;;;17.49;100.00
64340;BME280;63709;53.258;-8.814;2023-05-07T00:37:25;101358.88;;;17.52;100.00
64340;BME280;63709;53.258;-8.814;2023-05-07T00:39:50;101365.13;;;17.52;100.00
64340;BME280;63709;53.258;-8.814;2023-05-07T00:42:17;101361.56;;;17.52;100.00
64340;BME280;63709;53.258;-8.814;2023-05-07T00:44:43;101353.91;;;17.47;100.00
64340;BME280;63709;53.258;-8.814;2023-05-07T00:47:08;101353.25;;;17.35;100.00
64340;BME280;63709;53.258;-8.814;2023-05-07T00:49:44;101361.34;;;17.35;100.00
64340;BME280;63709;53.258;-8.814;2023-05-07T00:52:41;101365.56;;;17.38;100.00
64340;BME280;63709;53.258;-8.814;2023-05-07T00:55:12;101352.53;;;17.24;100.00
64340;BME280;63709;53.258;-8.814;2023-05-07T00:57:54;101353.94;;;17.28;100.00
64340;BME280;63709;53.258;-8.814;2023-05-07T01:00:43;101364.31;;;17.32;100.00
64340;BME280;63709;53.258;-8.814;2023-05-07T01:03:09;101349.16;;;17.12;100.00
64340;BME280;63709;53.258;-8.814;2023-05-07T01:05:41;101342.34;;;17.08;100.00
64340;BME280;63709;53.258;-8.814;2023-05-07T01:11:14;101356.28;;;17.03;100.00
64340;BME280;63709;53.258;-8.814;2023-05-07T01:13:45;101339.81;;;16.87;100.00
64340;BME280;63709;53.258;-8.814;2023-05-07T01:16:13;101336.88;;;16.80;100.00
64340;BME280;63709;53.258;-8.814;2023-05-07T01:18:41;101367.91;;;16.94;100.00
64340;BME280;63709;53.258;-8.814;2023-05-07T01:21:10;101363.41;;;16.95;100.00
64340;BME280;63709;53.258;-8.814;2023-05-07T01:23:41;101352.31;;;16.88;100.00
64340;BME280;63709;53.258;-8.814;2023-05-07T01:26:17;101359.41;;;16.89;100.00
64340;BME280;63709;53.258;-8.814;2023-05-07T01:28:54;101338.28;;;16.75;100.00
64340;BME280;63709;53.258;-8.814;2023-05-07T01:31:20;101354.75;;;16.81;100.00
64340;BME280;63709;53.258;-8.814;2023-05-07T01:33:46;101356.72;;;16.89;100.00
64340;BME280;63709;53.258;-8.814;2023-05-07T01:36:14;101331.28;;;16.72;100.00
64340;BME280;63709;53.258;-8.814;2023-05-07T01:38:40;101340.38;;;17.00;100.00
64340;BME280;63709;53.258;-8.814;2023-05-07T01:41:08;101332.00;;;16.93;100.00
64340;BME280;63709;53.258;-8.814;2023-05-07T01:43:35;101304.78;;;16.77;100.00
64340;BME280;63709;53.258;-8.814;2023-05-07T01:46:01;101329.75;;;16.89;100.00
64340;BME280;63709;53.258;-8.814;2023-05-07T01:48:32;101313.44;;;16.81;100.00
64340;BME280;63709;53.258;-8.814;2023-05-07T01:50:58;101331.88;;;16.85;100.00
64340;BME280;63709;53.258;-8.814;2023-05-07T01:53:35;101313.72;;;16.78;100.00
64340;BME280;63709;53.258;-8.814;2023-05-07T01:56:10;101331.03;;;16.85;100.00
64340;BME280;63709;53.258;-8.814;2023-05-07T01:58:40;101302.63;;;16.71;100.00
64340;BME280;63709;53.258;-8.814;2023-05-07T02:01:07;101335.44;;;16.86;100.00
64340;BME280;63709;53.258;-8.814;2023-05-07T02:03:33;101333.84;;;16.93;100.00
64340;BME280;63709;53.258;-8.814;2023-05-07T02:05:59;101357.44;;;16.91;100.00
64340;BME280;63709;53.258;-8.814;2023-05-07T02:08:27;101325.25;;;16.80;100.00
64340;BME280;63709;53.258;-8.814;2023-05-07T02:10:53;101343.25;;;16.89;100.00
64340;BME280;63709;53.258;-8.814;2023-05-07T02:13:19;101351.16;;;16.90;100.00
64340;BME280;63709;53.258;-8.814;2023-05-07T02:15:45;101369.31;;;16.98;100.00
64340;BME280;63709;53.258;-8.814;2023-05-07T02:18:15;101365.66;;;16.99;100.00
64340;BME280;63709;53.258;-8.814;2023-05-07T02:20:41;101330.47;;;16.81;100.00
64340;BME280;63709;53.258;-8.814;2023-05-07T02:23:09;101361.97;;;17.00;100.00
64340;BME280;63709;53.258;-8.814;2023-05-07T02:25:35;101336.72;;;16.82;100.00
64340;BME280;63709;53.258;-8.814;2023-05-07T02:28:01;101366.63;;;16.98;100.00
64340;BME280;63709;53.258;-8.814;2023-05-07T02:30:42;101358.53;;;16.98;100.00
64340;BME280;63709;53.258;-8.814;2023-05-07T02:33:10;101321.66;;;16.69;100.00
64340;BME280;63709;53.258;-8.814;2023-05-07T02:35:40;101340.13;;;16.74;100.00
64340;BME280;63709;53.258;-8.814;2023-05-07T02:38:06;101329.44;;;16.63;100.00
64340;BME280;63709;53.258;-8.814;2023-05-07T02:40:34;101342.50;;;16.58;100.00
64340;BME280;63709;53.258;-8.814;2023-05-07T02:43:04;101337.81;;;16.60;100.00
64340;BME280;63709;53.258;-8.814;2023-05-07T02:45:38;101332.97;;;16.54;100.00
64340;BME280;63709;53.258;-8.814;2023-05-07T02:48:06;101335.25;;;16.49;100.00
64340;BME280;63709;53.258;-8.814;2023-05-07T02:50:32;101332.84;;;16.36;100.00
64340;BME280;63709;53.258;-8.814;2023-05-07T02:52:58;101307.03;;;16.33;100.00
64340;BME280;63709;53.258;-8.814;2023-05-07T02:55:32;101339.09;;;16.36;100.00
64340;BME280;63709;53.258;-8.814;2023-05-07T02:58:06;101334.69;;;16.45;100.00
64340;BME280;63709;53.258;-8.814;2023-05-07T03:00:38;101331.13;;;16.35;100.00
64340;BME280;63709;53.258;-8.814;2023-05-07T03:03:14;101341.06;;;16.44;100.00
64340;BME280;63709;53.258;-8.814;2023-05-07T03:05:41;101332.97;;;16.25;100.00
64340;BME280;63709;53.258;-8.814;2023-05-07T03:08:24;101330.72;;;16.39;100.00
64340;BME280;63709;53.258;-8.814;2023-05-07T03:11:02;101328.59;;;16.33;100.00
64340;BME280;63709;53.258;-8.814;2023-05-07T03:13:28;101334.81;;;16.24;100.00
64340;BME280;63709;53.258;-8.814;2023-05-07T03:15:54;101331.81;;;16.17;100.00
64340;BME280;63709;53.258;-8.814;2023-05-07T03:18:20;101344.88;;;16.22;100.00
64340;BME280;63709;53.258;-8.814;2023-05-07T03:20:48;101370.72;;;16.44;100.00
64340;BME280;63709;53.258;-8.814;2023-05-07T03:23:16;101354.69;;;16.33;100.00
64340;BME280;63709;53.258;-8.814;2023-05-07T03:25:44;101335.94;;;16.21;100.00
64340;BME280;63709;53.258;-8.814;2023-05-07T03:28:11;101332.56;;;16.29;100.00
64340;BME280;63709;53.258;-8.814;2023-05-07T03:30:37;101338.78;;;16.49;100.00
64340;BME280;63709;53.258;-8.814;2023-05-07T03:33:02;101332.69;;;16.37;100.00
64340;BME280;63709;53.258;-8.814;2023-05-07T03:35:29;101334.13;;;16.32;100.00
64340;BME280;63709;53.258;-8.814;2023-05-07T03:37:56;101320.94;;;16.29;100.00
64340;BME280;63709;53.258;-8.814;2023-05-07T03:40:21;101371.41;;;16.46;100.00
64340;BME280;63709;53.258;-8.814;2023-05-07T03:43:00;101349.97;;;16.35;100.00
64340;BME280;63709;53.258;-8.814;2023-05-07T03:45:27;101349.44;;;16.41;100.00
64340;BME280;63709;53.258;-8.814;2023-05-07T03:47:52;101374.28;;;16.54;100.00
64340;BME280;63709;53.258;-8.814;2023-05-07T03:50:18;101368.72;;;16.46;100.00
64340;BME280;63709;53.258;-8.814;2023-05-07T03:52:45;101347.97;;;16.27;100.00
64340;BME280;63709;53.258;-8.814;2023-05-07T03:55:12;101353.69;;;16.34;100.00
64340;BME280;63709;53.258;-8.814;2023-05-07T03:57:41;101357.38;;;16.42;100.00
64340;BME280;63709;53.258;-8.814;2023-05-07T04:00:08;101375.00;;;16.47;100.00
64340;BME280;63709;53.258;-8.814;2023-05-07T04:02:36;101368.44;;;16.39;100.00
64340;BME280;63709;53.258;-8.814;2023-05-07T04:05:02;101336.06;;;16.20;100.00
64340;BME280;63709;53.258;-8.814;2023-05-07T04:07:27;101347.84;;;16.19;100.00
64340;BME280;63709;53.258;-8.814;2023-05-07T04:10:03;101357.66;;;16.30;100.00
64340;BME280;63709;53.258;-8.814;2023-05-07T04:12:31;101372.00;;;16.40;100.00
64340;BME280;63709;53.258;-8.814;2023-05-07T04:14:58;101341.91;;;16.25;100.00
64340;BME280;63709;53.258;-8.814;2023-05-07T04:17:27;101330.41;;;16.23;100.00
64340;BME280;63709;53.258;-8.814;2023-05-07T04:19:57;101321.75;;;16.19;100.00
64340;BME280;63709;53.258;-8.814;2023-05-07T04:22:26;101330.09;;;16.16;100.00
64340;BME280;63709;53.258;-8.814;2023-05-07T04:24:54;101318.59;;;16.05;100.00
64340;BME280;63709;53.258;-8.814;2023-05-07T04:27:23;101323.59;;;16.19;100.00
64340;BME280;63709;53.258;-8.814;2023-05-07T04:29:49;101319.63;;;16.13;100.00
64340;BME280;63709;53.258;-8.814;2023-05-07T04:32:14;101316.47;;;16.08;100.00
64340;BME280;63709;53.258;-8.814;2023-05-07T04:34:51;101311.38;;;16.05;100.00
64340;BME280;63709;53.258;-8.814;2023-05-07T04:37:20;101342.31;;;16.20;100.00
64340;BME280;63709;53.258;-8.814;2023-05-07T04:39:46;101313.38;;;16.03;100.00
64340;BME280;63709;53.258;-8.814;2023-05-07T04:42:17;101318.22;;;16.09;100.00
64340;BME280;63709;53.258;-8.814;2023-05-07T04:44:46;101327.72;;;16.13;100.00
64340;BME280;63709;53.258;-8.814;2023-05-07T04:47:11;101325.13;;;16.02;100.00
64340;BME280;63709;53.258;-8.814;2023-05-07T04:49:38;101328.78;;;16.01;100.00
64340;BME280;63709;53.258;-8.814;2023-05-07T04:52:05;101313.31;;;15.84;100.00
64340;BME280;63709;53.258;-8.814;2023-05-07T04:54:30;101325.97;;;16.03;100.00
64340;BME280;63709;53.258;-8.814;2023-05-07T04:56:57;101321.56;;;16.02;100.00
64340;BME280;63709;53.258;-8.814;2023-05-07T04:59:23;101345.88;;;16.21;100.00
64340;BME280;63709;53.258;-8.814;2023-05-07T05:01:54;101336.59;;;16.04;100.00
64340;BME280;63709;53.258;-8.814;2023-05-07T05:04:23;101335.59;;;16.05;100.00
64340;BME280;63709;53.258;-8.814;2023-05-07T05:06:49;101327.69;;;16.04;100.00
64340;BME280;63709;53.258;-8.814;2023-05-07T05:09:17;101337.88;;;16.00;100.00
64340;BME280;63709;53.258;-8.814;2023-05-07T05:12:06;101378.66;;;16.36;100.00
64340;BME280;63709;53.258;-8.814;2023-05-07T05:14:41;101376.88;;;16.15;100.00
64340;BME280;63709;53.258;-8.814;2023-05-07T05:17:06;101378.31;;;16.10;100.00
64340;BME280;63709;53.258;-8.814;2023-05-07T05:19:59;101398.44;;;16.15;100.00
64340;BME280;63709;53.258;-8.814;2023-05-07T05:22:24;101405.53;;;16.16;100.00
64340;BME280;63709;53.258;-8.814;2023-05-07T05:24:50;101403.81;;;16.15;100.00
64340;BME280;63709;53.258;-8.814;2023-05-07T05:27:16;101374.41;;;15.93;100.00
64340;BME280;63709;53.258;-8.814;2023-05-07T05:29:42;101390.56;;;15.93;100.00
64340;BME280;63709;53.258;-8.814;2023-05-07T05:32:08;101400.06;;;15.87;100.00
64340;BME280;63709;53.258;-8.814;2023-05-07T05:34:39;101383.53;;;15.71;100.00
64340;BME280;63709;53.258;-8.814;2023-05-07T05:37:06;101399.75;;;15.90;100.00
64340;BME280;63709;53.258;-8.814;2023-05-07T05:39:31;101412.53;;;15.98;100.00
64340;BME280;63709;53.258;-8.814;2023-05-07T05:42:02;101392.81;;;15.88;100.00
64340;BME280;63709;53.258;-8.814;2023-05-07T05:44:28;101393.13;;;15.94;100.00
64340;BME280;63709;53.258;-8.814;2023-05-07T05:46:54;101379.38;;;15.88;100.00
64340;BME280;63709;53.258;-8.814;2023-05-07T05:49:26;101388.19;;;16.00;100.00
64340;BME280;63709;53.258;-8.814;2023-05-07T05:51:52;101377.16;;;16.03;100.00
64340;BME280;63709;53.258;-8.814;2023-05-07T05:54:33;101378.59;;;16.16;100.00
64340;BME280;63709;53.258;-8.814;2023-05-07T05:57:01;101380.84;;;16.11;100.00
64340;BME280;63709;53.258;-8.814;2023-05-07T05:59:29;101373.19;;;16.07;100.00
64340;BME280;63709;53.258;-8.814;2023-05-07T06:01:55;101375.88;;;16.16;100.00
64340;BME280;63709;53.258;-8.814;2023-05-07T06:04:26;101375.63;;;16.19;100.00
64340;BME280;63709;53.258;-8.814;2023-05-07T06:06:54;101412.94;;;16.34;100.00
64340;BME280;63709;53.258;-8.814;2023-05-07T06:09:20;101386.72;;;16.36;100.00
64340;BME280;63709;53.258;-8.814;2023-05-07T06:11:45;101385.72;;;16.37;100.00
64340;BME280;63709;53.258;-8.814;2023-05-07T06:14:17;101391.66;;;16.31;100.00
64340;BME280;63709;53.258;-8.814;2023-05-07T06:16:48;101411.97;;;16.44;100.00
64340;BME280;63709;53.258;-8.814;2023-05-07T06:19:32;101427.75;;;16.59;100.00
64340;BME280;63709;53.258;-8.814;2023-05-07T06:22:03;101403.63;;;16.48;100.00
64340;BME280;63709;53.258;-8.814;2023-05-07T06:24:28;101399.34;;;16.45;100.00
64340;BME280;63709;53.258;-8.814;2023-05-07T06:27:01;101406.47;;;16.56;100.00
64340;BME280;63709;53.258;-8.814;2023-05-07T06:29:29;101412.59;;;16.67;100.00
64340;BME280;63709;53.258;-8.814;2023-05-07T06:32:11;101435.66;;;16.91;100.00
64340;BME280;63709;53.258;-8.814;2023-05-07T06:34:37;101380.25;;;16.58;100.00
64340;BME280;63709;53.258;-8.814;2023-05-07T06:37:02;101411.22;;;16.83;100.00
64340;BME280;63709;53.258;-8.814;2023-05-07T06:39:28;101429.94;;;16.94;100.00
64340;BME280;63709;53.258;-8.814;2023-05-07T06:41:54;101411.06;;;16.94;100.00
64340;BME280;63709;53.258;-8.814;2023-05-07T06:44:23;101373.31;;;16.75;100.00
64340;BME280;63709;53.258;-8.814;2023-05-07T06:46:51;101422.03;;;17.02;100.00
64340;BME280;63709;53.258;-8.814;2023-05-07T06:49:17;101431.78;;;17.13;100.00
64340;BME280;63709;53.258;-8.814;2023-05-07T06:51:44;101402.81;;;17.05;100.00
64340;BME280;63709;53.258;-8.814;2023-05-07T06:54:09;101389.94;;;16.89;100.00
64340;BME280;63709;53.258;-8.814;2023-05-07T06:56:38;101432.81;;;17.02;100.00
64340;BME280;63709;53.258;-8.814;2023-05-07T06:59:04;101411.38;;;16.91;100.00
64340;BME280;63709;53.258;-8.814;2023-05-07T07:01:31;101419.59;;;16.99;100.00
64340;BME280;63709;53.258;-8.814;2023-05-07T07:04:03;101414.22;;;16.99;100.00
64340;BME280;63709;53.258;-8.814;2023-05-07T07:06:29;101402.00;;;16.95;100.00
64340;BME280;63709;53.258;-8.814;2023-05-07T07:09:00;101419.75;;;17.07;100.00
64340;BME280;63709;53.258;-8.814;2023-05-07T07:11:31;101411.50;;;16.99;100.00
64340;BME280;63709;53.258;-8.814;2023-05-07T07:13:57;101403.69;;;16.96;100.00
64340;BME280;63709;53.258;-8.814;2023-05-07T07:16:30;101415.91;;;17.10;100.00
64340;BME280;63709;53.258;-8.814;2023-05-07T07:19:04;101407.09;;;16.98;100.00
64340;BME280;63709;53.258;-8.814;2023-05-07T07:21:31;101433.63;;;17.12;100.00
64340;BME280;63709;53.258;-8.814;2023-05-07T07:24:03;101453.78;;;17.28;100.00
64340;BME280;63709;53.258;-8.814;2023-05-07T07:26:29;101426.69;;;17.20;100.00
64340;BME280;63709;53.258;-8.814;2023-05-07T07:29:04;101426.13;;;17.35;100.00
64340;BME280;63709;53.258;-8.814;2023-05-07T07:31:32;101439.16;;;17.40;100.00
64340;BME280;63709;53.258;-8.814;2023-05-07T07:37:19;101413.31;;;17.28;100.00
64340;BME280;63709;53.258;-8.814;2023-05-07T07:39:44;101410.94;;;17.25;100.00
64340;BME280;63709;53.258;-8.814;2023-05-07T07:42:10;101402.69;;;17.16;100.00
64340;BME280;63709;53.258;-8.814;2023-05-07T07:44:35;101385.50;;;17.08;100.00
64340;BME280;63709;53.258;-8.814;2023-05-07T07:47:01;101390.19;;;17.15;100.00
64340;BME280;63709;53.258;-8.814;2023-05-07T07:49:31;101409.63;;;17.19;100.00
64340;BME280;63709;53.258;-8.814;2023-05-07T07:51:57;101421.56;;;17.26;100.00
64340;BME280;63709;53.258;-8.814;2023-05-07T07:54:34;101409.75;;;17.27;100.00
64340;BME280;63709;53.258;-8.814;2023-05-07T07:57:06;101411.50;;;17.28;100.00
64340;BME280;63709;53.258;-8.814;2023-05-07T07:59:36;101420.13;;;17.41;100.00
64340;BME280;63709;53.258;-8.814;2023-05-07T08:02:02;101411.56;;;17.46;100.00
64340;BME280;63709;53.258;-8.814;2023-05-07T08:04:27;101400.09;;;17.44;100.00
64340;BME280;63709;53.258;-8.814;2023-05-07T08:06:57;101388.16;;;17.47;100.00
64340;BME280;63709;53.258;-8.814;2023-05-07T08:09:49;101424.31;;;17.83;100.00
64340;BME280;63709;53.258;-8.814;2023-05-07T08:15:52;101416.72;;;17.96;100.00
64340;BME280;63709;53.258;-8.814;2023-05-07T08:18:18;101392.19;;;17.70;100.00
64340;BME280;63709;53.258;-8.814;2023-05-07T08:20:49;101405.41;;;17.83;100.00
64340;BME280;63709;53.258;-8.814;2023-05-07T08:23:18;101379.69;;;17.79;100.00
64340;BME280;63709;53.258;-8.814;2023-05-07T08:25:49;101381.09;;;17.83;100.00
64340;BME280;63709;53.258;-8.814;2023-05-07T08:28:19;101397.56;;;17.89;100.00
64340;BME280;63709;53.258;-8.814;2023-05-07T08:31:14;101414.50;;;18.09;100.00
64340;BME280;63709;53.258;-8.814;2023-05-07T08:33:43;101396.50;;;18.00;100.00
64340;BME280;63709;53.258;-8.814;2023-05-07T08:36:16;101388.22;;;18.11;100.00
64340;BME280;63709;53.258;-8.814;2023-05-07T08:38:54;101392.31;;;18.16;100.00
64340;BME280;63709;53.258;-8.814;2023-05-07T08:41:34;101381.75;;;18.22;100.00
64340;BME280;63709;53.258;-8.814;2023-05-07T08:44:12;101391.75;;;18.12;100.00
64340;BME280;63709;53.258;-8.814;2023-05-07T08:46:51;101427.03;;;18.66;100.00
64340;BME280;63709;53.258;-8.814;2023-05-07T08:49:20;101429.22;;;18.52;100.00
64340;BME280;63709;53.258;-8.814;2023-05-07T08:54:46;101408.97;;;18.38;100.00
64340;BME280;63709;53.258;-8.814;2023-05-07T08:57:12;101432.44;;;18.66;100.00
64340;BME280;63709;53.258;-8.814;2023-05-07T08:59:46;101415.34;;;18.47;100.00
64340;BME280;63709;53.258;-8.814;2023-05-07T09:02:20;101407.53;;;18.44;100.00
64340;BME280;63709;53.258;-8.814;2023-05-07T09:04:52;101415.63;;;18.44;100.00
64340;BME280;63709;53.258;-8.814;2023-05-07T09:07:19;101401.19;;;18.35;100.00
64340;BME280;63709;53.258;-8.814;2023-05-07T09:09:49;101409.94;;;18.47;100.00
64340;BME280;63709;53.258;-8.814;2023-05-07T09:12:24;101404.84;;;18.34;100.00
64340;BME280;63709;53.258;-8.814;2023-05-07T09:14:50;101397.47;;;18.36;100.00
64340;BME280;63709;53.258;-8.814;2023-05-07T09:17:20;101393.69;;;18.47;100.00
64340;BME280;63709;53.258;-8.814;2023-05-07T09:19:45;101395.13;;;18.69;100.00
64340;BME280;63709;53.258;-8.814;2023-05-07T09:22:16;101402.88;;;18.82;100.00
64340;BME280;63709;53.258;-8.814;2023-05-07T09:24:49;101395.22;;;18.95;100.00
64340;BME280;63709;53.258;-8.814;2023-05-07T09:27:30;101402.88;;;19.00;100.00
64340;BME280;63709;53.258;-8.814;2023-05-07T09:30:03;101395.97;;;19.05;100.00
64340;BME280;63709;53.258;-8.814;2023-05-07T09:32:36;101380.38;;;18.99;100.00
64340;BME280;63709;53.258;-8.814;2023-05-07T09:35:05;101376.41;;;18.94;100.00
64340;BME280;63709;53.258;-8.814;2023-05-07T09:37:35;101401.91;;;19.09;100.00
64340;BME280;63709;53.258;-8.814;2023-05-07T09:40:00;101360.19;;;18.94;100.00
64340;BME280;63709;53.258;-8.814;2023-05-07T09:42:27;101395.00;;;19.32;100.00
64340;BME280;63709;53.258;-8.814;2023-05-07T09:44:55;101377.78;;;19.16;100.00
64340;BME280;63709;53.258;-8.814;2023-05-07T09:47:35;101376.09;;;19.15;100.00
64340;BME280;63709;53.258;-8.814;2023-05-07T09:50:05;101384.81;;;19.26;100.00
64340;BME280;63709;53.258;-8.814;2023-05-07T09:52:46;101361.66;;;19.06;100.00
64340;BME280;63709;53.258;-8.814;2023-05-07T09:55:11;101356.44;;;19.13;100.00
64340;BME280;63709;53.258;-8.814;2023-05-07T09:57:38;101361.84;;;19.13;100.00
64340;BME280;63709;53.258;-8.814;2023-05-07T10:00:05;101340.84;;;19.06;100.00
64340;BME280;63709;53.258;-8.814;2023-05-07T10:02:35;101359.91;;;19.23;100.00
64340;BME280;63709;53.258;-8.814;2023-05-07T10:05:06;101367.94;;;19.32;100.00
64340;BME280;63709;53.258;-8.814;2023-05-07T10:07:32;101385.06;;;19.41;100.00
64340;BME280;63709;53.258;-8.814;2023-05-07T10:10:00;101362.66;;;19.31;100.00
64340;BME280;63709;53.258;-8.814;2023-05-07T10:12:42;101378.28;;;19.37;100.00
64340;BME280;63709;53.258;-8.814;2023-05-07T10:15:19;101365.53;;;19.29;100.00
64340;BME280;63709;53.258;-8.814;2023-05-07T10:18:01;101368.94;;;19.31;100.00
64340;BME280;63709;53.258;-8.814;2023-05-07T10:20:36;101394.50;;;19.55;100.00
64340;BME280;63709;53.258;-8.814;2023-05-07T10:23:04;101366.75;;;19.35;100.00
64340;BME280;63709;53.258;-8.814;2023-05-07T10:25:35;101355.31;;;19.41;100.00
64340;BME280;63709;53.258;-8.814;2023-05-07T10:28:10;101360.78;;;19.57;100.00
64340;BME280;63709;53.258;-8.814;2023-05-07T10:34:07;101388.69;;;19.76;100.00
64340;BME280;63709;53.258;-8.814;2023-05-07T10:36:35;101366.34;;;19.74;100.00
64340;BME280;63709;53.258;-8.814;2023-05-07T10:39:10;101371.28;;;19.78;100.00
64340;BME280;63709;53.258;-8.814;2023-05-07T10:41:44;101367.56;;;19.79;100.00
64340;BME280;63709;53.258;-8.814;2023-05-07T10:44:30;101385.66;;;19.79;100.00
64340;BME280;63709;53.258;-8.814;2023-05-07T10:47:12;101382.00;;;19.88;100.00
64340;BME280;63709;53.258;-8.814;2023-05-07T10:52:24;101364.03;;;19.61;100.00
64340;BME280;63709;53.258;-8.814;2023-05-07T10:55:20;101384.50;;;19.81;100.00
64340;BME280;63709;53.258;-8.814;2023-05-07T10:57:56;101352.06;;;19.64;100.00
64340;BME280;63709;53.258;-8.814;2023-05-07T11:00:55;101353.19;;;19.61;100.00
64340;BME280;63709;53.258;-8.814;2023-05-07T11:03:28;101357.03;;;19.50;100.00
64340;BME280;63709;53.258;-8.814;2023-05-07T11:09:07;101351.25;;;19.45;100.00
64340;BME280;63709;53.258;-8.814;2023-05-07T11:11:49;101348.44;;;19.55;100.00
64340;BME280;63709;53.258;-8.814;2023-05-07T11:14:46;101385.09;;;19.67;100.00
64340;BME280;63709;53.258;-8.814;2023-05-07T11:17:13;101346.19;;;19.50;100.00
64340;BME280;63709;53.258;-8.814;2023-05-07T11:20:05;101374.81;;;19.71;100.00
64340;BME280;63709;53.258;-8.814;2023-05-07T11:22:54;101386.66;;;19.70;100.00
64340;BME280;63709;53.258;-8.814;2023-05-07T11:25:29;101366.63;;;19.63;100.00
64340;BME280;63709;53.258;-8.814;2023-05-07T11:28:10;101355.88;;;19.53;100.00
64340;BME280;63709;53.258;-8.814;2023-05-07T11:30:56;101382.56;;;19.66;100.00
64340;BME280;63709;53.258;-8.814;2023-05-07T11:33:26;101373.66;;;19.55;100.00
64340;BME280;63709;53.258;-8.814;2023-05-07T11:36:11;101356.00;;;19.43;100.00
64340;BME280;63709;53.258;-8.814;2023-05-07T11:38:49;101352.38;;;19.34;100.00
64340;BME280;63709;53.258;-8.814;2023-05-07T11:41:16;101362.78;;;19.47;100.00
64340;BME280;63709;53.258;-8.814;2023-05-07T11:44:02;101381.22;;;19.44;100.00
64340;BME280;63709;53.258;-8.814;2023-05-07T11:46:29;101357.91;;;19.25;100.00
64340;BME280;63709;53.258;-8.814;2023-05-07T11:49:01;101338.22;;;19.15;100.00
64340;BME280;63709;53.258;-8.814;2023-05-07T11:51:37;101345.22;;;19.25;100.00
64340;BME280;63709;53.258;-8.814;2023-05-07T11:54:18;101356.84;;;19.44;100.00
64340;BME280;63709;53.258;-8.814;2023-05-07T11:56:46;101358.53;;;19.45;100.00
64340;BME280;63709;53.258;-8.814;2023-05-07T11:59:18;101334.59;;;19.32;100.00
64340;BME280;63709;53.258;-8.814;2023-05-07T12:01:50;101342.59;;;19.42;100.00
64340;BME280;63709;53.258;-8.814;2023-05-07T12:04:39;101369.81;;;19.58;100.00
64340;BME280;63709;53.258;-8.814;2023-05-07T12:07:16;101350.38;;;19.63;100.00
64340;BME280;63709;53.258;-8.814;2023-05-07T12:09:49;101361.78;;;19.74;100.00
64340;BME280;63709;53.258;-8.814;2023-05-07T12:12:25;101355.56;;;19.82;100.00
64340;BME280;63709;53.258;-8.814;2023-05-07T12:17:36;101333.16;;;19.72;100.00
64340;BME280;63709;53.258;-8.814;2023-05-07T12:20:05;101354.91;;;19.88;100.00
64340;BME280;63709;53.258;-8.814;2023-05-07T12:22:34;101362.53;;;19.93;100.00
64340;BME280;63709;53.258;-8.814;2023-05-07T12:25:18;101323.53;;;19.77;100.00
64340;BME280;63709;53.258;-8.814;2023-05-07T12:27:51;101333.22;;;19.88;100.00
64340;BME280;63709;53.258;-8.814;2023-05-07T12:30:17;101329.81;;;19.86;100.00
64340;BME280;63709;53.258;-8.814;2023-05-07T12:32:45;101350.72;;;20.02;100.00
64340;BME280;63709;53.258;-8.814;2023-05-07T12:35:16;101319.63;;;19.80;100.00
64340;BME280;63709;53.258;-8.814;2023-05-07T12:37:55;101353.41;;;20.02;100.00
64340;BME280;63709;53.258;-8.814;2023-05-07T12:40:21;101350.72;;;20.02;100.00
64340;BME280;63709;53.258;-8.814;2023-05-07T12:42:52;101337.47;;;19.91;100.00
64340;BME280;63709;53.258;-8.814;2023-05-07T12:45:20;101351.50;;;19.86;100.00
64340;BME280;63709;53.258;-8.814;2023-05-07T12:48:07;101365.91;;;19.95;100.00
64340;BME280;63709;53.258;-8.814;2023-05-07T12:50:41;101340.47;;;19.79;100.00
64340;BME280;63709;53.258;-8.814;2023-05-07T12:53:14;101329.81;;;19.78;100.00
64340;BME280;63709;53.258;-8.814;2023-05-07T12:55:59;101334.91;;;19.81;100.00
64340;BME280;63709;53.258;-8.814;2023-05-07T12:58:43;101332.47;;;19.70;100.00
64340;BME280;63709;53.258;-8.814;2023-05-07T13:01:09;101345.69;;;19.73;100.00
64340;BME280;63709;53.258;-8.814;2023-05-07T13:03:48;101356.53;;;19.73;100.00
64340;BME280;63709;53.258;-8.814;2023-05-07T13:06:19;101332.03;;;19.56;100.00
64340;BME280;63709;53.258;-8.814;2023-05-07T13:08:48;101337.63;;;19.55;100.00
64340;BME280;63709;53.258;-8.814;2023-05-07T13:11:14;101322.44;;;19.36;100.00
64340;BME280;63709;53.258;-8.814;2023-05-07T13:13:43;101340.13;;;19.48;100.00
64340;BME280;63709;53.258;-8.814;2023-05-07T13:16:16;101331.63;;;19.43;100.00